Time,TemperatureF,DewpointF,PressureIn,WindDirection,WindDirectionDegrees,WindSpeedMPH,WindSpeedGustMPH,Humidity,HourlyPrecipIn,Conditions,Clouds,dailyrainin,SoftwareType,DateUTC
2013-04-07 00:00:00,53.6,-6.3,27.58,WSW,245,3.6,3.6,8,0.00,,---,0.00,VWS V14.01,2013-04-07 04:00:00,
2013-04-07 00:05:00,53.4,-6.4,27.58,WSW,250,3.1,3.1,8,0.00,,---,0.00,VWS V14.01,2013-04-07 04:05:00,
2013-04-07 00:10:00,53.2,-6.6,27.58,SSE,157,2.7,2.7,8,0.00,,---,0.00,VWS V14.01,2013-04-07 04:10:00,
2013-04-07 00:15:00,53.1,-6.7,27.58,WSW,237,2.7,3.1,8,0.00,,---,0.00,VWS V14.01,2013-04-07 04:15:00,
2013-04-07 00:20:00,53.1,-6.7,27.58,West,268,2.7,3.1,8,0.00,,---,0.00,VWS V14.01,2013-04-07 04:20:00,
2013-04-07 00:25:00,53.1,-6.7,27.58,South,183,3.1,4.0,8,0.00,,---,0.00,VWS V14.01,2013-04-07 04:25:00,
2013-04-07 00:30:00,53.1,-6.7,27.58,SW,233,4.0,5.8,8,0.00,,---,0.00,VWS V14.01,2013-04-07 04:30:00,
2013-04-07 00:35:00,53.1,-6.7,27.58,SW,236,2.7,2.7,8,0.00,,---,0.00,VWS V14.01,2013-04-07 04:35:00,
2013-04-07 00:40:00,52.9,-6.8,27.58,SSW,210,0.0,0.0,8,0.00,,---,0.00,VWS V14.01,2013-04-07 04:40:00,
2013-04-07 00:45:00,52.9,-6.8,27.58,SW,235,3.1,3.6,8,0.00,,---,0.00,VWS V14.01,2013-04-07 04:45:00,
2013-04-07 00:50:00,52.7,-7.0,27.58,SSE,166,2.7,3.6,8,0.00,,---,0.00,VWS V14.01,2013-04-07 04:50:00,
2013-04-07 00:55:00,52.7,-7.0,27.58,South,175,0.0,0.0,8,0.00,,---,0.00,VWS V14.01,2013-04-07 04:55:00,
2013-04-07 01:00:00,52.5,-7.1,27.58,WSW,255,3.6,4.9,8,0.00,,---,0.00,VWS V14.01,2013-04-07 05:00:00,
2013-04-07 01:05:00,52.5,-7.1,27.58,SE,137,2.2,2.7,8,0.00,,---,0.00,VWS V14.01,2013-04-07 05:05:00,
2013-04-07 01:10:00,52.5,-7.1,27.58,WNW,303,0.0,0.0,8,0.00,,---,0.00,VWS V14.01,2013-04-07 05:10:00,
2013-04-07 01:15:00,52.5,-7.1,27.58,SE,134,0.0,0.0,8,0.00,,---,0.00,VWS V14.01,2013-04-07 05:15:00,
2013-04-07 01:20:00,52.5,-7.1,27.58,SE,134,0.0,0.0,8,0.00,,---,0.00,VWS V14.01,2013-04-07 05:20:00,
2013-04-07 01:25:00,52.3,-7.2,27.58,ENE,66,3.1,4.5,8,0.00,,---,0.00,VWS V14.01,2013-04-07 05:25:00,
2013-04-07 01:30:00,52.3,-7.2,27.58,East,94,0.0,0.0,8,0.00,,---,0.00,VWS V14.01,2013-04-07 05:30:00,
2013-04-07 01:35:00,52.2,-7.4,27.58,ENE,70,0.0,2.7,8,0.00,,---,0.00,VWS V14.01,2013-04-07 05:35:00,
2013-04-07 01:40:00,52.2,-7.4,27.58,SE,138,2.2,2.7,8,0.00,,---,0.00,VWS V14.01,2013-04-07 05:40:00,
2013-04-07 01:45:00,52.2,-7.4,27.58,East,79,3.1,3.1,8,0.00,,---,0.00,VWS V14.01,2013-04-07 05:45:00,
2013-04-07 01:50:00,51.8,-7.7,27.58,East,82,0.0,3.1,8,0.00,,---,0.00,VWS V14.01,2013-04-07 05:50:00,
2013-04-07 01:55:00,52.0,-7.5,27.58,East,91,3.6,4.9,8,0.00,,---,0.00,VWS V14.01,2013-04-07 05:55:00,
2013-04-07 02:00:00,52.0,-7.5,27.58,ESE,122,0.0,3.6,8,0.00,,---,0.00,VWS V14.01,2013-04-07 06:00:00,
2013-04-07 02:05:00,52.0,-7.5,27.58,East,84,3.6,3.6,8,0.00,,---,0.00,VWS V14.01,2013-04-07 06:05:00,
2013-04-07 02:10:00,51.6,-5.4,27.58,ESE,113,2.7,2.7,9,0.00,,---,0.00,VWS V14.01,2013-04-07 06:10:00,
2013-04-07 02:15:00,51.4,-5.5,27.58,West,272,3.6,3.6,9,0.00,,---,0.00,VWS V14.01,2013-04-07 06:15:00,
2013-04-07 02:20:00,51.6,-5.4,27.58,NW,304,2.2,2.7,9,0.00,,---,0.00,VWS V14.01,2013-04-07 06:20:00,
2013-04-07 02:25:00,51.6,-5.4,27.58,East,88,0.0,0.0,9,0.00,,---,0.00,VWS V14.01,2013-04-07 06:25:00,
2013-04-07 02:30:00,51.6,-5.4,27.58,SSE,150,4.0,6.3,9,0.00,,---,0.00,VWS V14.01,2013-04-07 06:30:00,
2013-04-07 02:35:00,51.6,-5.4,27.58,SE,128,0.0,3.1,9,0.00,,---,0.00,VWS V14.01,2013-04-07 06:35:00,
2013-04-07 02:40:00,51.3,-5.6,27.58,SE,142,5.4,5.4,9,0.00,,---,0.00,VWS V14.01,2013-04-07 06:40:00,
2013-04-07 02:45:00,50.7,-6.1,27.58,SSW,207,3.1,3.1,9,0.00,,---,0.00,VWS V14.01,2013-04-07 06:45:00,
2013-04-07 02:50:00,50.2,-6.5,27.58,SSW,213,2.7,2.7,9,0.00,,---,0.00,VWS V14.01,2013-04-07 06:50:00,
2013-04-07 02:55:00,50.2,-6.5,27.58,SSW,208,2.2,2.7,9,0.00,,---,0.00,VWS V14.01,2013-04-07 06:55:00,
2013-04-07 03:00:00,50.2,-6.5,27.58,SW,234,4.0,4.0,9,0.00,,---,0.00,VWS V14.01,2013-04-07 07:00:00,
2013-04-07 03:05:00,50.4,-6.3,27.58,SW,214,0.0,2.7,9,0.00,,---,0.00,VWS V14.01,2013-04-07 07:05:00,
2013-04-07 03:10:00,50.4,-6.3,27.58,East,87,4.0,4.0,9,0.00,,---,0.00,VWS V14.01,2013-04-07 07:10:00,
2013-04-07 03:15:00,50.2,-6.5,27.58,SW,224,2.2,2.2,9,0.00,,---,0.00,VWS V14.01,2013-04-07 07:15:00,
2013-04-07 03:20:00,50.0,-6.6,27.58,SSE,155,5.4,5.4,9,0.00,,---,0.00,VWS V14.01,2013-04-07 07:20:00,
2013-04-07 03:25:00,50.0,-6.6,27.58,ESE,120,3.1,5.8,9,0.00,,---,0.00,VWS V14.01,2013-04-07 07:25:00,
2013-04-07 03:30:00,50.0,-6.6,27.58,ESE,123,4.0,4.0,9,0.00,,---,0.00,VWS V14.01,2013-04-07 07:30:00,
2013-04-07 03:35:00,49.8,-6.7,27.58,SW,227,0.0,0.0,9,0.00,,---,0.00,VWS V14.01,2013-04-07 07:35:00,
2013-04-07 03:40:00,49.5,-7.0,27.58,SE,136,2.2,3.1,9,0.00,,---,0.00,VWS V14.01,2013-04-07 07:40:00,
2013-04-07 03:45:00,49.3,-7.2,27.58,SE,139,3.1,3.1,9,0.00,,---,0.00,VWS V14.01,2013-04-07 07:45:00,
2013-04-07 03:50:00,49.3,-7.2,27.58,ESE,119,4.9,5.4,9,0.00,,---,0.00,VWS V14.01,2013-04-07 07:50:00,
2013-04-07 03:55:00,49.1,-7.3,27.58,SE,124,2.2,3.6,9,0.00,,---,0.00,VWS V14.01,2013-04-07 07:55:00,
2013-04-07 04:00:00,48.9,-7.4,27.58,SSW,204,0.0,0.0,9,0.00,,---,0.00,VWS V14.01,2013-04-07 08:00:00,
2013-04-07 04:06:00,48.4,-7.8,27.58,East,97,3.1,3.1,9,0.00,,---,0.00,VWS V14.01,2013-04-07 08:06:00,
2013-04-07 04:11:00,47.8,-8.3,27.58,SE,145,0.0,0.0,9,0.00,,---,0.00,VWS V14.01,2013-04-07 08:11:00,
2013-04-07 04:16:00,47.5,-8.5,27.58,SE,145,0.0,0.0,9,0.00,,---,0.00,VWS V14.01,2013-04-07 08:16:00,
2013-04-07 04:21:00,46.9,-8.9,27.58,SSE,153,0.0,0.0,9,0.00,,---,0.00,VWS V14.01,2013-04-07 08:21:00,
2013-04-07 04:26:00,46.4,-9.4,27.58,SSE,153,0.0,0.0,9,0.00,,---,0.00,VWS V14.01,2013-04-07 08:26:00,
2013-04-07 04:31:00,46.0,-7.5,27.58,North,357,2.7,3.6,10,0.00,,---,0.00,VWS V14.01,2013-04-07 08:31:00,
2013-04-07 04:36:00,45.9,-7.6,27.58,North,357,0.0,0.0,10,0.00,,---,0.00,VWS V14.01,2013-04-07 08:36:00,
2013-04-07 04:40:00,45.7,-7.8,27.58,North,357,0.0,0.0,10,0.00,,---,0.00,VWS V14.01,2013-04-07 08:40:00,
2013-04-07 04:46:00,45.5,-7.9,27.58,North,357,2.7,2.7,10,0.00,,---,0.00,VWS V14.01,2013-04-07 08:46:00,
2013-04-07 04:51:00,45.5,-7.9,27.58,North,357,0.0,0.0,10,0.00,,---,0.00,VWS V14.01,2013-04-07 08:51:00,
2013-04-07 04:55:00,45.1,-8.2,27.58,NNE,22,2.7,3.1,10,0.00,,---,0.00,VWS V14.01,2013-04-07 08:55:00,
2013-04-07 05:00:00,45.0,-8.3,27.58,NNE,22,0.0,0.0,10,0.00,,---,0.00,VWS V14.01,2013-04-07 09:00:00,
2013-04-07 05:05:00,44.8,-8.5,27.58,NNE,22,0.0,0.0,10,0.00,,---,0.00,VWS V14.01,2013-04-07 09:05:00,
2013-04-07 05:10:00,44.6,-8.6,27.58,NNE,22,0.0,0.0,10,0.00,,---,0.00,VWS V14.01,2013-04-07 09:10:00,
2013-04-07 05:15:00,44.6,-8.6,27.58,North,5,2.7,3.1,10,0.00,,---,0.00,VWS V14.01,2013-04-07 09:15:00,
2013-04-07 05:20:00,44.4,-8.8,27.58,North,5,0.0,0.0,10,0.00,,---,0.00,VWS V14.01,2013-04-07 09:20:00,
2013-04-07 05:25:00,44.4,-8.8,27.58,North,6,0.0,0.0,10,0.00,,---,0.00,VWS V14.01,2013-04-07 09:25:00,
2013-04-07 05:30:00,44.2,-8.9,27.58,North,6,0.0,0.0,10,0.00,,---,0.00,VWS V14.01,2013-04-07 09:30:00,
2013-04-07 05:35:00,44.2,-8.9,27.58,NNE,12,2.2,3.1,10,0.00,,---,0.00,VWS V14.01,2013-04-07 09:35:00,
2013-04-07 05:40:00,44.4,-8.8,27.58,NE,47,3.1,3.6,10,0.00,,---,0.00,VWS V14.01,2013-04-07 09:40:00,
2013-04-07 05:45:00,44.4,-8.8,27.58,NE,47,0.0,0.0,10,0.00,,---,0.00,VWS V14.01,2013-04-07 09:45:00,
2013-04-07 05:51:00,44.1,-9.0,27.58,NE,47,0.0,0.0,10,0.00,,---,0.00,VWS V14.01,2013-04-07 09:51:00,
2013-04-07 05:56:00,43.7,-9.3,27.58,NE,47,0.0,0.0,10,0.00,,---,0.00,VWS V14.01,2013-04-07 09:56:00,
2013-04-07 06:01:00,43.5,-9.4,27.58,NE,47,0.0,0.0,10,0.00,,---,0.00,VWS V14.01,2013-04-07 10:01:00,
2013-04-07 06:06:00,43.2,-9.7,27.58,NE,47,0.0,0.0,10,0.00,,---,0.00,VWS V14.01,2013-04-07 10:06:00,
2013-04-07 06:11:00,42.8,-10.0,27.58,NE,47,2.7,2.7,10,0.00,,---,0.00,VWS V14.01,2013-04-07 10:11:00,
2013-04-07 06:15:00,42.6,-8.2,27.58,NNE,21,2.2,2.2,11,0.00,,---,0.00,VWS V14.01,2013-04-07 10:15:00,
2013-04-07 06:20:00,42.4,-8.4,27.58,WSW,249,0.0,2.2,11,0.00,,---,0.00,VWS V14.01,2013-04-07 10:20:00,
2013-04-07 06:26:00,42.6,-8.2,27.58,WSW,253,2.7,3.1,11,0.00,,---,0.00,VWS V14.01,2013-04-07 10:26:00,
2013-04-07 06:31:00,42.6,-4.8,27.58,SE,144,2.2,2.7,13,0.00,,---,0.00,VWS V14.01,2013-04-07 10:31:00,
2013-04-07 06:36:00,42.6,-4.8,27.58,SSW,206,2.7,2.7,13,0.00,,---,0.00,VWS V14.01,2013-04-07 10:36:00,
2013-04-07 06:41:00,42.8,-4.6,27.58,SE,133,3.1,3.6,13,0.00,,---,0.00,VWS V14.01,2013-04-07 10:41:00,
2013-04-07 06:46:00,43.3,-4.2,27.58,NE,51,2.7,2.7,13,0.00,,---,0.00,VWS V14.01,2013-04-07 10:46:00,
2013-04-07 06:51:00,43.3,-4.2,27.58,North,353,3.6,3.6,13,0.00,,---,0.00,VWS V14.01,2013-04-07 10:51:00,
2013-04-07 06:56:00,43.3,-4.2,27.58,North,357,2.2,2.7,13,0.00,,---,0.00,VWS V14.01,2013-04-07 10:56:00,
2013-04-07 07:01:00,43.5,-4.1,27.58,North,357,2.7,2.7,13,0.00,,---,0.00,VWS V14.01,2013-04-07 11:01:00,
2013-04-07 07:06:00,43.5,-4.1,27.58,NE,42,3.1,3.1,13,0.00,,---,0.00,VWS V14.01,2013-04-07 11:06:00,
2013-04-07 07:11:00,43.5,-4.1,27.58,ESE,121,2.7,2.7,13,0.00,,---,0.00,VWS V14.01,2013-04-07 11:11:00,
2013-04-07 07:16:00,43.3,-4.2,27.58,NNE,15,2.2,2.7,13,0.00,,---,0.00,VWS V14.01,2013-04-07 11:16:00,
2013-04-07 07:22:00,43.3,-4.2,27.58,North,0,3.6,3.6,13,0.00,,---,0.00,VWS V14.01,2013-04-07 11:22:00,
2013-04-07 07:27:00,43.5,-4.1,27.58,NW,322,3.1,3.1,13,0.00,,---,0.00,VWS V14.01,2013-04-07 11:27:00,
2013-04-07 07:32:00,43.9,-3.8,27.58,East,101,3.1,3.1,13,0.00,,---,0.00,VWS V14.01,2013-04-07 11:32:00,
2013-04-07 07:37:00,44.4,-3.3,27.58,NE,41,0.0,0.0,13,0.00,,---,0.00,VWS V14.01,2013-04-07 11:37:00,
2013-04-07 07:42:00,44.6,-4.9,27.58,NE,35,0.0,0.0,12,0.00,,---,0.00,VWS V14.01,2013-04-07 11:42:00,
2013-04-07 07:47:00,44.2,-3.5,27.58,North,10,2.2,2.7,13,0.00,,---,0.00,VWS V14.01,2013-04-07 11:47:00,
2013-04-07 07:52:00,44.2,-3.5,27.58,North,10,3.1,3.1,13,0.00,,---,0.00,VWS V14.01,2013-04-07 11:52:00,
2013-04-07 07:57:00,44.4,-3.3,27.58,NNE,20,2.7,2.7,13,0.00,,---,0.00,VWS V14.01,2013-04-07 11:57:00,
2013-04-07 08:02:00,44.8,-4.7,27.58,NNE,20,0.0,0.0,12,0.00,,---,0.00,VWS V14.01,2013-04-07 12:02:00,
2013-04-07 08:07:00,45.3,-4.3,27.58,NNE,21,0.0,0.0,12,0.00,,---,0.00,VWS V14.01,2013-04-07 12:07:00,
2013-04-07 08:12:00,45.7,-7.8,27.58,East,85,2.7,2.7,10,0.00,,---,0.00,VWS V14.01,2013-04-07 12:12:00,
2013-04-07 08:17:00,46.0,-7.5,27.58,SE,145,0.0,0.0,10,0.00,,---,0.00,VWS V14.01,2013-04-07 12:17:00,
2013-04-07 08:22:00,46.4,-9.4,27.58,SSE,152,2.7,4.0,9,0.00,,---,0.00,VWS V14.01,2013-04-07 12:22:00,
2013-04-07 08:27:00,47.1,-8.8,27.58,SE,124,4.9,4.9,9,0.00,,---,0.00,VWS V14.01,2013-04-07 12:27:00,
2013-04-07 08:32:00,47.7,-8.4,27.58,SE,125,3.1,4.9,9,0.00,,---,0.00,VWS V14.01,2013-04-07 12:32:00,
2013-04-07 08:37:00,48.4,-7.8,27.58,ESE,123,5.4,5.4,9,0.00,,---,0.00,VWS V14.01,2013-04-07 12:37:00,
2013-04-07 08:42:00,48.9,-7.4,27.58,SE,132,3.1,5.8,9,0.00,,---,0.00,VWS V14.01,2013-04-07 12:42:00,
2013-04-07 08:47:00,49.5,-7.0,27.58,SE,132,3.6,4.9,9,0.00,,---,0.00,VWS V14.01,2013-04-07 12:47:00,
2013-04-07 08:52:00,50.0,-6.6,27.61,ESE,119,2.7,4.0,9,0.00,,---,0.00,VWS V14.01,2013-04-07 12:52:00,
2013-04-07 08:57:00,50.4,-6.3,27.61,East,83,4.0,4.0,9,0.00,,---,0.00,VWS V14.01,2013-04-07 12:57:00,
2013-04-07 09:02:00,50.9,-5.9,27.61,SE,146,3.1,6.3,9,0.00,,---,0.00,VWS V14.01,2013-04-07 13:02:00,
2013-04-07 09:07:00,51.6,-5.4,27.61,SE,129,5.8,6.3,9,0.00,,---,0.00,VWS V14.01,2013-04-07 13:07:00,
2013-04-07 09:12:00,52.2,-7.4,27.61,SE,127,3.6,3.6,8,0.00,,---,0.00,VWS V14.01,2013-04-07 13:12:00,
2013-04-07 09:17:00,52.9,-6.8,27.61,SE,133,3.1,5.4,8,0.00,,---,0.00,VWS V14.01,2013-04-07 13:17:00,
2013-04-07 09:22:00,53.6,-6.3,27.61,SE,128,4.9,4.9,8,0.00,,---,0.00,VWS V14.01,2013-04-07 13:22:00,
2013-04-07 09:27:00,54.1,-5.9,27.61,SSE,165,3.1,3.6,8,0.00,,---,0.00,VWS V14.01,2013-04-07 13:27:00,
2013-04-07 09:32:00,54.7,-5.5,27.61,SE,125,6.3,6.3,8,0.00,,---,0.00,VWS V14.01,2013-04-07 13:32:00,
2013-04-07 09:37:00,55.2,-5.1,27.61,ESE,123,5.4,5.4,8,0.00,,---,0.00,VWS V14.01,2013-04-07 13:37:00,
2013-04-07 09:42:00,55.6,-7.6,27.61,SSE,151,4.0,5.8,7,0.00,,---,0.00,VWS V14.01,2013-04-07 13:42:00,
2013-04-07 09:47:00,56.1,-7.2,27.61,ESE,103,3.6,3.6,7,0.00,,---,0.00,VWS V14.01,2013-04-07 13:47:00,
2013-04-07 09:52:00,56.5,-6.9,27.61,SE,124,4.9,6.3,7,0.00,,---,0.00,VWS V14.01,2013-04-07 13:52:00,
2013-04-07 09:57:00,56.7,-6.8,27.61,SE,137,4.0,4.0,7,0.00,,---,0.00,VWS V14.01,2013-04-07 13:57:00,
2013-04-07 10:02:00,57.2,-6.3,27.61,SSE,150,5.8,5.8,7,0.00,,---,0.00,VWS V14.01,2013-04-07 14:02:00,
2013-04-07 10:07:00,57.6,-6.1,27.58,SSW,193,2.7,3.6,7,0.00,,---,0.00,VWS V14.01,2013-04-07 14:07:00,
2013-04-07 10:12:00,57.9,-5.8,27.58,ESE,113,4.0,6.3,7,0.00,,---,0.00,VWS V14.01,2013-04-07 14:12:00,
2013-04-07 10:17:00,58.3,-5.6,27.58,ESE,120,5.4,5.4,7,0.00,,---,0.00,VWS V14.01,2013-04-07 14:17:00,
2013-04-07 10:22:00,58.8,-5.2,27.58,SE,140,5.4,5.4,7,0.00,,---,0.00,VWS V14.01,2013-04-07 14:22:00,
2013-04-07 10:27:00,59.2,-4.9,27.58,East,101,5.4,5.4,7,0.00,,---,0.00,VWS V14.01,2013-04-07 14:27:00,
2013-04-07 10:32:00,59.7,-4.5,27.58,SSW,212,0.0,3.1,7,0.00,,---,0.00,VWS V14.01,2013-04-07 14:32:00,
2013-04-07 10:37:00,60.3,-4.1,27.58,East,92,2.7,5.8,7,0.00,,---,0.00,VWS V14.01,2013-04-07 14:37:00,
2013-04-07 10:43:00,60.6,-3.8,27.58,West,273,3.1,3.6,7,0.00,,---,0.00,VWS V14.01,2013-04-07 14:43:00,
2013-04-07 10:47:00,60.6,-3.8,27.58,NE,46,3.6,5.4,7,0.00,,---,0.00,VWS V14.01,2013-04-07 14:47:00,
2013-04-07 10:53:00,61.2,-6.6,27.58,SE,127,3.6,3.6,6,0.00,,---,0.00,VWS V14.01,2013-04-07 14:53:00,
2013-04-07 10:58:00,61.7,-6.2,27.58,ESE,114,2.7,4.0,6,0.00,,---,0.00,VWS V14.01,2013-04-07 14:58:00,
2013-04-07 11:03:00,61.9,-6.1,27.58,SSE,156,4.0,4.9,6,0.00,,---,0.00,VWS V14.01,2013-04-07 15:03:00,
2013-04-07 11:08:00,62.2,-5.8,27.58,NE,45,3.6,5.8,6,0.00,,---,0.00,VWS V14.01,2013-04-07 15:08:00,
2013-04-07 11:13:00,62.6,-5.6,27.58,NNW,333,3.1,8.1,6,0.00,,---,0.00,VWS V14.01,2013-04-07 15:13:00,
2013-04-07 11:18:00,63.0,-5.3,27.58,ESE,116,6.7,6.7,6,0.00,,---,0.00,VWS V14.01,2013-04-07 15:18:00,
2013-04-07 11:22:00,63.3,-5.0,27.58,NNE,31,0.0,2.7,6,0.00,,---,0.00,VWS V14.01,2013-04-07 15:22:00,
2013-04-07 11:28:00,63.9,-4.7,27.58,East,92,5.4,6.3,6,0.00,,---,0.00,VWS V14.01,2013-04-07 15:28:00,
2013-04-07 11:33:00,64.4,-8.0,27.58,ESE,110,5.8,11.0,5,0.00,,---,0.00,VWS V14.01,2013-04-07 15:33:00,
2013-04-07 11:38:00,65.3,-7.4,27.58,SE,140,4.0,5.8,5,0.00,,---,0.00,VWS V14.01,2013-04-07 15:38:00,
2013-04-07 11:43:00,66.2,-6.7,27.58,South,181,0.0,3.1,5,0.00,,---,0.00,VWS V14.01,2013-04-07 15:43:00,
2013-04-07 11:48:00,66.9,-6.2,27.58,ESE,120,3.6,5.4,5,0.00,,---,0.00,VWS V14.01,2013-04-07 15:48:00,
2013-04-07 11:53:00,67.3,-6.0,27.58,ENE,60,3.1,4.9,5,0.00,,---,0.00,VWS V14.01,2013-04-07 15:53:00,
2013-04-07 11:58:00,67.6,-5.7,27.58,WSW,244,3.1,7.6,5,0.00,,---,0.00,VWS V14.01,2013-04-07 15:58:00,
2013-04-07 12:03:00,67.8,-5.6,27.58,SE,125,5.8,6.3,5,0.00,,---,0.00,VWS V14.01,2013-04-07 16:03:00,
2013-04-07 12:08:00,67.8,-5.6,27.58,SE,137,5.8,7.6,5,0.00,,---,0.00,VWS V14.01,2013-04-07 16:08:00,
2013-04-07 12:13:00,68.4,-5.2,27.58,ENE,73,2.7,5.8,5,0.00,,---,0.00,VWS V14.01,2013-04-07 16:13:00,
2013-04-07 12:18:00,68.7,-4.9,27.58,ESE,116,6.3,10.5,5,0.00,,---,0.00,VWS V14.01,2013-04-07 16:18:00,
2013-04-07 12:23:00,69.3,-4.6,27.58,SSE,150,3.1,4.0,5,0.00,,---,0.00,VWS V14.01,2013-04-07 16:23:00,
2013-04-07 12:28:00,69.6,-4.3,27.58,SE,135,6.3,8.7,5,0.00,,---,0.00,VWS V14.01,2013-04-07 16:28:00,
2013-04-07 12:33:00,68.9,-4.8,27.58,SSE,148,5.4,8.3,5,0.00,,---,0.00,VWS V14.01,2013-04-07 16:33:00,
2013-04-07 12:38:00,68.5,-5.1,27.58,ESE,120,3.6,5.8,5,0.00,,---,0.00,VWS V14.01,2013-04-07 16:38:00,
2013-04-07 12:43:00,68.7,-4.9,27.58,SE,128,6.3,7.6,5,0.00,,---,0.00,VWS V14.01,2013-04-07 16:43:00,
2013-04-07 12:48:00,69.3,-4.6,27.58,SSE,150,6.3,6.3,5,0.00,,---,0.00,VWS V14.01,2013-04-07 16:48:00,
2013-04-07 12:53:00,69.4,-4.4,27.58,SE,126,4.0,5.8,5,0.00,,---,0.00,VWS V14.01,2013-04-07 16:53:00,
2013-04-07 12:58:00,69.8,-8.8,27.58,SE,130,8.7,8.7,4,0.00,,---,0.00,VWS V14.01,2013-04-07 16:58:00,
2013-04-07 13:03:00,70.3,-8.4,27.58,SSE,153,5.8,5.8,4,0.00,,---,0.00,VWS V14.01,2013-04-07 17:03:00,
2013-04-07 13:08:00,70.5,-8.3,27.58,SE,145,8.3,8.3,4,0.00,,---,0.00,VWS V14.01,2013-04-07 17:08:00,
2013-04-07 13:13:00,70.7,-8.1,27.58,South,190,3.1,5.8,4,0.00,,---,0.00,VWS V14.01,2013-04-07 17:13:00,
2013-04-07 13:18:00,70.7,-8.1,27.58,SSE,154,6.3,6.3,4,0.00,,---,0.00,VWS V14.01,2013-04-07 17:18:00,
2013-04-07 13:23:00,71.1,-7.9,27.55,SE,124,3.6,4.9,4,0.00,,---,0.00,VWS V14.01,2013-04-07 17:23:00,
2013-04-07 13:28:00,71.1,-7.9,27.55,ESE,117,3.1,3.1,4,0.00,,---,0.00,VWS V14.01,2013-04-07 17:28:00,
2013-04-07 13:33:00,71.2,-7.8,27.55,SSE,151,5.4,7.6,4,0.00,,---,0.00,VWS V14.01,2013-04-07 17:33:00,
2013-04-07 13:38:00,71.2,-7.8,27.55,SE,145,7.2,7.2,4,0.00,,---,0.00,VWS V14.01,2013-04-07 17:38:00,
2013-04-07 13:43:00,71.4,-7.6,27.55,SE,124,8.3,8.3,4,0.00,,---,0.00,VWS V14.01,2013-04-07 17:43:00,
2013-04-07 13:48:00,72.0,-7.3,27.55,South,180,5.8,5.8,4,0.00,,---,0.00,VWS V14.01,2013-04-07 17:48:00,
2013-04-07 13:53:00,72.1,-7.1,27.55,ESE,107,7.6,7.6,4,0.00,,---,0.00,VWS V14.01,2013-04-07 17:53:00,
2013-04-07 13:58:00,72.0,-7.3,27.55,SE,140,8.1,8.1,4,0.00,,---,0.00,VWS V14.01,2013-04-07 17:58:00,
2013-04-07 14:03:00,71.1,-7.9,27.55,SE,125,3.1,3.1,4,0.00,,---,0.00,VWS V14.01,2013-04-07 18:03:00,
2013-04-07 14:08:00,71.2,-7.8,27.55,ESE,114,8.3,8.3,4,0.00,,---,0.00,VWS V14.01,2013-04-07 18:08:00,
2013-04-07 14:13:00,71.8,-7.4,27.55,ESE,118,5.4,9.6,4,0.00,,---,0.00,VWS V14.01,2013-04-07 18:13:00,
2013-04-07 14:18:00,72.5,-6.9,27.55,SSE,147,3.6,5.4,4,0.00,,---,0.00,VWS V14.01,2013-04-07 18:18:00,
2013-04-07 14:23:00,73.8,-11.9,27.55,SE,127,5.4,5.4,3,0.00,,---,0.00,VWS V14.01,2013-04-07 18:23:00,
2013-04-07 14:28:00,74.8,-11.1,27.55,NE,47,7.6,7.6,3,0.00,,---,0.00,VWS V14.01,2013-04-07 18:28:00,
2013-04-07 14:33:00,75.6,-10.6,27.55,SSE,165,8.7,8.7,3,0.00,,---,0.00,VWS V14.01,2013-04-07 18:33:00,
2013-04-07 14:38:00,75.6,-10.6,27.52,SSE,150,8.7,8.7,3,0.00,,---,0.00,VWS V14.01,2013-04-07 18:38:00,
2013-04-07 14:43:00,75.7,-10.5,27.52,SE,132,5.4,5.4,3,0.00,,---,0.00,VWS V14.01,2013-04-07 18:43:00,
2013-04-07 14:48:00,75.4,-10.8,27.52,SSE,156,5.4,5.4,3,0.00,,---,0.00,VWS V14.01,2013-04-07 18:48:00,
2013-04-07 14:53:00,75.2,-10.9,27.52,NE,43,5.8,5.8,3,0.00,,---,0.00,VWS V14.01,2013-04-07 18:53:00,
2013-04-07 14:58:00,75.0,-11.0,27.52,SE,132,7.2,7.2,3,0.00,,---,0.00,VWS V14.01,2013-04-07 18:58:00,
2013-04-07 15:03:00,75.0,-11.0,27.52,SW,223,3.6,4.9,3,0.00,,---,0.00,VWS V14.01,2013-04-07 19:03:00,
2013-04-07 15:08:00,75.0,-11.0,27.52,SE,134,2.7,2.7,3,0.00,,---,0.00,VWS V14.01,2013-04-07 19:08:00,
2013-04-07 15:13:00,75.2,-10.9,27.52,SE,126,6.3,6.3,3,0.00,,---,0.00,VWS V14.01,2013-04-07 19:13:00,
2013-04-07 15:18:00,74.8,-11.1,27.52,SSE,167,2.7,6.3,3,0.00,,---,0.00,VWS V14.01,2013-04-07 19:18:00,
2013-04-07 15:23:00,74.8,-11.1,27.52,SE,146,8.3,8.3,3,0.00,,---,0.00,VWS V14.01,2013-04-07 19:23:00,
2013-04-07 15:28:00,74.3,-11.5,27.52,WSW,245,4.0,5.8,3,0.00,,---,0.00,VWS V14.01,2013-04-07 19:28:00,
2013-04-07 15:33:00,73.9,-11.7,27.52,SE,126,5.8,7.2,3,0.00,,---,0.00,VWS V14.01,2013-04-07 19:33:00,
2013-04-07 15:38:00,74.3,-11.5,27.52,SSE,149,3.6,4.0,3,0.00,,---,0.00,VWS V14.01,2013-04-07 19:38:00,
2013-04-07 15:43:00,74.7,-11.2,27.52,East,83,7.6,8.3,3,0.00,,---,0.00,VWS V14.01,2013-04-07 19:43:00,
2013-04-07 15:48:00,75.2,-10.9,27.52,SE,135,8.1,8.7,3,0.00,,---,0.00,VWS V14.01,2013-04-07 19:48:00,
2013-04-07 15:53:00,75.2,-10.9,27.52,SE,139,5.8,6.3,3,0.00,,---,0.00,VWS V14.01,2013-04-07 19:53:00,
2013-04-07 15:58:00,75.7,-10.5,27.52,SE,145,4.0,4.0,3,0.00,,---,0.00,VWS V14.01,2013-04-07 19:58:00,
2013-04-07 16:03:00,76.3,-10.2,27.52,SSE,153,4.0,8.1,3,0.00,,---,0.00,VWS V14.01,2013-04-07 20:03:00,
2013-04-07 16:08:00,76.6,-9.9,27.49,SE,140,3.6,11.0,3,0.00,,---,0.00,VWS V14.01,2013-04-07 20:08:00,
2013-04-07 16:14:00,77.2,-9.6,27.49,SSE,151,2.7,10.1,3,0.00,,---,0.00,VWS V14.01,2013-04-07 20:14:00,
2013-04-07 16:19:00,77.7,-9.2,27.49,South,178,5.4,8.1,3,0.00,,---,0.00,VWS V14.01,2013-04-07 20:19:00,
2013-04-07 16:24:00,78.3,-8.8,27.52,South,182,5.8,9.2,3,0.00,,---,0.00,VWS V14.01,2013-04-07 20:24:00,
2013-04-07 16:29:00,78.6,-8.6,27.52,SSE,147,8.7,8.7,3,0.00,,---,0.00,VWS V14.01,2013-04-07 20:29:00,
2013-04-07 16:34:00,77.9,-9.1,27.52,South,185,5.8,5.8,3,0.00,,---,0.00,VWS V14.01,2013-04-07 20:34:00,
2013-04-07 16:39:00,76.6,-9.9,27.52,ENE,63,4.9,6.3,3,0.00,,---,0.00,VWS V14.01,2013-04-07 20:39:00,
2013-04-07 16:44:00,75.7,-10.5,27.52,SE,137,8.3,8.3,3,0.00,,---,0.00,VWS V14.01,2013-04-07 20:44:00,
2013-04-07 16:49:00,75.2,-10.9,27.52,NNE,18,4.0,4.0,3,0.00,,---,0.00,VWS V14.01,2013-04-07 20:49:00,
2013-04-07 16:54:00,75.0,-11.0,27.49,SSE,160,3.6,5.4,3,0.00,,---,0.00,VWS V14.01,2013-04-07 20:54:00,
2013-04-07 16:59:00,75.0,-11.0,27.49,East,92,8.7,8.7,3,0.00,,---,0.00,VWS V14.01,2013-04-07 20:59:00,
2013-04-07 17:04:00,74.7,-11.2,27.49,SE,134,6.3,10.5,3,0.00,,---,0.00,VWS V14.01,2013-04-07 21:04:00,
2013-04-07 17:09:00,74.3,-11.5,27.49,SSE,161,5.8,5.8,3,0.00,,---,0.00,VWS V14.01,2013-04-07 21:09:00,
2013-04-07 17:14:00,74.3,-11.5,27.49,SW,217,4.0,4.0,3,0.00,,---,0.00,VWS V14.01,2013-04-07 21:14:00,
2013-04-07 17:19:00,74.8,-11.1,27.49,East,90,4.9,4.9,3,0.00,,---,0.00,VWS V14.01,2013-04-07 21:19:00,
2013-04-07 17:24:00,74.7,-11.2,27.49,ESE,109,3.6,8.3,3,0.00,,---,0.00,VWS V14.01,2013-04-07 21:24:00,
2013-04-07 17:29:00,73.6,-12.0,27.49,ESE,123,8.1,8.1,3,0.00,,---,0.00,VWS V14.01,2013-04-07 21:29:00,
2013-04-07 17:34:00,71.6,-7.5,27.49,SSE,148,5.8,5.8,4,0.00,,---,0.00,VWS V14.01,2013-04-07 21:34:00,
2013-04-07 17:39:00,70.5,-8.3,27.49,SSE,152,8.7,8.7,4,0.00,,---,0.00,VWS V14.01,2013-04-07 21:39:00,
2013-04-07 17:44:00,70.5,-8.3,27.49,SW,221,6.3,6.3,4,0.00,,---,0.00,VWS V14.01,2013-04-07 21:44:00,
2013-04-07 17:49:00,71.1,-7.9,27.49,SSW,202,8.1,8.3,4,0.00,,---,0.00,VWS V14.01,2013-04-07 21:49:00,
2013-04-07 17:54:00,71.1,-7.9,27.49,SE,131,7.6,8.1,4,0.00,,---,0.00,VWS V14.01,2013-04-07 21:54:00,
2013-04-07 17:59:00,70.9,-8.0,27.49,SE,138,4.9,4.9,4,0.00,,---,0.00,VWS V14.01,2013-04-07 21:59:00,
2013-04-07 18:04:00,71.1,-7.9,27.49,SSE,147,6.3,6.3,4,0.00,,---,0.00,VWS V14.01,2013-04-07 22:04:00,
2013-04-07 18:09:00,70.9,-8.0,27.52,WSW,249,3.6,6.3,4,0.00,,---,0.00,VWS V14.01,2013-04-07 22:09:00,
2013-04-07 18:14:00,70.7,-8.1,27.52,SE,133,12.8,15.0,4,0.00,,---,0.00,VWS V14.01,2013-04-07 22:14:00,
2013-04-07 18:19:00,69.3,-4.6,27.52,SW,221,3.6,5.8,5,0.00,,---,0.00,VWS V14.01,2013-04-07 22:19:00,
2013-04-07 18:24:00,68.5,-5.1,27.52,SSE,166,4.9,5.4,5,0.00,,---,0.00,VWS V14.01,2013-04-07 22:24:00,
2013-04-07 18:29:00,67.8,-5.6,27.52,SSE,149,5.8,6.3,5,0.00,,---,0.00,VWS V14.01,2013-04-07 22:29:00,
2013-04-07 18:34:00,66.9,-6.2,27.52,South,169,8.7,8.7,5,0.00,,---,0.00,VWS V14.01,2013-04-07 22:34:00,
2013-04-07 18:39:00,66.2,-6.7,27.52,SSE,168,5.8,7.2,5,0.00,,---,0.00,VWS V14.01,2013-04-07 22:39:00,
2013-04-07 18:44:00,65.7,-7.1,27.52,SSW,193,2.7,5.8,5,0.00,,---,0.00,VWS V14.01,2013-04-07 22:44:00,
2013-04-07 18:49:00,65.3,-7.4,27.52,SE,130,3.6,5.4,5,0.00,,---,0.00,VWS V14.01,2013-04-07 22:49:00,
2013-04-07 18:55:00,65.1,-7.5,27.52,SSW,207,14.1,14.1,5,0.00,,---,0.00,VWS V14.01,2013-04-07 22:55:00,
2013-04-07 18:59:00,64.8,-7.8,27.52,South,177,8.3,8.3,5,0.00,,---,0.00,VWS V14.01,2013-04-07 22:59:00,
2013-04-07 19:05:00,64.6,-7.9,27.52,WSW,244,6.3,7.6,5,0.00,,---,0.00,VWS V14.01,2013-04-07 23:05:00,
2013-04-07 19:10:00,64.2,-4.4,27.52,SSE,157,8.3,10.5,6,0.00,,---,0.00,VWS V14.01,2013-04-07 23:10:00,
2013-04-07 19:15:00,64.0,-4.5,27.52,ESE,122,7.6,12.3,6,0.00,,---,0.00,VWS V14.01,2013-04-07 23:15:00,
2013-04-07 19:20:00,63.9,-4.7,27.52,WSW,237,5.4,11.0,6,0.00,,---,0.00,VWS V14.01,2013-04-07 23:20:00,
2013-04-07 19:25:00,63.5,-4.9,27.52,WSW,238,9.2,9.2,6,0.00,,---,0.00,VWS V14.01,2013-04-07 23:25:00,
2013-04-07 19:30:00,63.3,-5.0,27.52,WSW,254,3.1,10.1,6,0.00,,---,0.00,VWS V14.01,2013-04-07 23:30:00,
2013-04-07 19:35:00,63.1,-5.2,27.52,SSW,210,5.4,10.5,6,0.00,,---,0.00,VWS V14.01,2013-04-07 23:35:00,
2013-04-07 19:40:00,62.8,-5.4,27.52,South,187,4.0,4.0,6,0.00,,---,0.00,VWS V14.01,2013-04-07 23:40:00,
2013-04-07 19:45:00,62.6,-5.6,27.52,ESE,122,5.4,7.6,6,0.00,,---,0.00,VWS V14.01,2013-04-07 23:45:00,
2013-04-07 19:50:00,62.2,-5.8,27.52,SSW,197,6.3,6.3,6,0.00,,---,0.00,VWS V14.01,2013-04-07 23:50:00,
2013-04-07 19:55:00,62.2,-5.8,27.52,WNW,287,5.4,8.3,6,0.00,,---,0.00,VWS V14.01,2013-04-07 23:55:00,
2013-04-07 20:00:00,61.9,-6.1,27.52,SW,214,3.1,3.1,6,0.00,,---,0.00,VWS V14.01,2013-04-08 00:00:00,
2013-04-07 20:05:00,61.9,-6.1,27.52,WSW,250,6.3,6.3,6,0.00,,---,0.00,VWS V14.01,2013-04-08 00:05:00,
2013-04-07 20:10:00,61.7,-6.2,27.52,WSW,250,5.4,7.6,6,0.00,,---,0.00,VWS V14.01,2013-04-08 00:10:00,
2013-04-07 20:15:00,61.5,-6.3,27.52,WSW,246,2.7,2.7,6,0.00,,---,0.00,VWS V14.01,2013-04-08 00:15:00,
2013-04-07 20:20:00,61.3,-6.5,27.52,SE,143,4.9,4.9,6,0.00,,---,0.00,VWS V14.01,2013-04-08 00:20:00,
2013-04-07 20:25:00,61.3,-6.5,27.52,SSW,194,4.0,4.0,6,0.00,,---,0.00,VWS V14.01,2013-04-08 00:25:00,
2013-04-07 20:30:00,61.3,-6.5,27.52,South,187,7.6,7.6,6,0.00,,---,0.00,VWS V14.01,2013-04-08 00:30:00,
2013-04-07 20:35:00,61.2,-6.6,27.52,WSW,247,9.6,9.6,6,0.00,,---,0.00,VWS V14.01,2013-04-08 00:35:00,
2013-04-07 20:40:00,61.0,-6.7,27.52,WSW,250,4.0,4.0,6,0.00,,---,0.00,VWS V14.01,2013-04-08 00:40:00,
2013-04-07 20:45:00,60.8,-6.9,27.52,SE,143,13.6,13.6,6,0.00,,---,0.00,VWS V14.01,2013-04-08 00:45:00,
2013-04-07 20:50:00,60.8,-6.9,27.52,SW,235,4.0,5.4,6,0.00,,---,0.00,VWS V14.01,2013-04-08 00:50:00,
2013-04-07 20:55:00,60.8,-6.9,27.52,SSE,149,8.7,8.7,6,0.00,,---,0.00,VWS V14.01,2013-04-08 00:55:00,
2013-04-07 21:00:00,60.8,-6.9,27.52,SW,225,11.4,11.4,6,0.00,,---,0.00,VWS V14.01,2013-04-08 01:00:00,
2013-04-07 21:05:00,60.6,-3.8,27.52,SW,217,5.4,5.4,7,0.00,,---,0.00,VWS V14.01,2013-04-08 01:05:00,
2013-04-07 21:10:00,60.6,-3.8,27.55,SE,137,3.6,8.1,7,0.00,,---,0.00,VWS V14.01,2013-04-08 01:10:00,
2013-04-07 21:15:00,60.4,-4.0,27.55,SSE,150,10.5,10.5,7,0.00,,---,0.00,VWS V14.01,2013-04-08 01:15:00,
2013-04-07 21:20:00,60.4,-4.0,27.55,SSE,167,3.6,9.6,7,0.00,,---,0.00,VWS V14.01,2013-04-08 01:20:00,
2013-04-07 21:25:00,60.4,-4.0,27.55,WSW,240,5.8,5.8,7,0.00,,---,0.00,VWS V14.01,2013-04-08 01:25:00,
2013-04-07 21:30:00,60.3,-4.1,27.55,SSE,157,6.3,6.3,7,0.00,,---,0.00,VWS V14.01,2013-04-08 01:30:00,
2013-04-07 21:35:00,60.3,-4.1,27.55,SW,218,2.7,5.8,7,0.00,,---,0.00,VWS V14.01,2013-04-08 01:35:00,
2013-04-07 21:40:00,60.1,-4.2,27.55,South,171,4.5,8.1,7,0.00,,---,0.00,VWS V14.01,2013-04-08 01:40:00,
2013-04-07 21:45:00,60.1,-4.2,27.55,WSW,247,6.3,8.7,7,0.00,,---,0.00,VWS V14.01,2013-04-08 01:45:00,
2013-04-07 21:50:00,59.9,-4.3,27.55,SE,138,2.7,3.1,7,0.00,,---,0.00,VWS V14.01,2013-04-08 01:50:00,
2013-04-07 21:55:00,59.9,-4.3,27.55,SE,124,3.6,4.0,7,0.00,,---,0.00,VWS V14.01,2013-04-08 01:55:00,
2013-04-07 22:00:00,59.7,-4.5,27.55,SSW,193,3.6,5.8,7,0.00,,---,0.00,VWS V14.01,2013-04-08 02:00:00,
2013-04-07 22:05:00,59.5,-4.6,27.55,SE,145,3.1,4.0,7,0.00,,---,0.00,VWS V14.01,2013-04-08 02:05:00,
2013-04-07 22:10:00,59.4,-4.8,27.55,SW,234,2.2,3.6,7,0.00,,---,0.00,VWS V14.01,2013-04-08 02:10:00,
2013-04-07 22:15:00,59.2,-4.9,27.55,SW,233,3.1,5.4,7,0.00,,---,0.00,VWS V14.01,2013-04-08 02:15:00,
2013-04-07 22:20:00,59.0,-5.0,27.55,South,189,5.8,5.8,7,0.00,,---,0.00,VWS V14.01,2013-04-08 02:20:00,
2013-04-07 22:25:00,59.2,-4.9,27.55,SW,228,2.2,4.0,7,0.00,,---,0.00,VWS V14.01,2013-04-08 02:25:00,
2013-04-07 22:30:00,59.2,-4.9,27.55,South,185,3.6,3.6,7,0.00,,---,0.00,VWS V14.01,2013-04-08 02:30:00,
2013-04-07 22:35:00,59.0,-5.0,27.55,South,171,0.0,4.9,7,0.00,,---,0.00,VWS V14.01,2013-04-08 02:35:00,
2013-04-07 22:40:00,58.8,-5.2,27.55,WSW,251,2.7,3.6,7,0.00,,---,0.00,VWS V14.01,2013-04-08 02:40:00,
2013-04-07 22:45:00,58.8,-5.2,27.55,South,173,2.7,3.1,7,0.00,,---,0.00,VWS V14.01,2013-04-08 02:45:00,
2013-04-07 22:50:00,58.6,-5.3,27.55,ESE,107,4.9,4.9,7,0.00,,---,0.00,VWS V14.01,2013-04-08 02:50:00,
2013-04-07 22:55:00,58.6,-5.3,27.55,North,357,3.1,5.4,7,0.00,,---,0.00,VWS V14.01,2013-04-08 02:55:00,
2013-04-07 23:00:00,58.8,-5.2,27.55,SSW,203,5.4,8.3,7,0.00,,---,0.00,VWS V14.01,2013-04-08 03:00:00,
2013-04-07 23:06:00,59.2,-4.9,27.55,ESE,114,2.7,4.0,7,0.00,,---,0.00,VWS V14.01,2013-04-08 03:06:00,
2013-04-07 23:11:00,59.2,-4.9,27.55,SW,216,0.0,3.6,7,0.00,,---,0.00,VWS V14.01,2013-04-08 03:11:00,
2013-04-07 23:16:00,59.0,-5.0,27.55,SW,233,0.0,2.7,7,0.00,,---,0.00,VWS V14.01,2013-04-08 03:16:00,
2013-04-07 23:21:00,58.8,-5.2,27.55,SE,145,0.0,0.0,7,0.00,,---,0.00,VWS V14.01,2013-04-08 03:21:00,
2013-04-07 23:26:00,58.1,-5.7,27.55,WSW,256,4.0,4.0,7,0.00,,---,0.00,VWS V14.01,2013-04-08 03:26:00,
2013-04-07 23:31:00,57.7,-5.9,27.55,South,176,0.0,2.2,7,0.00,,---,0.00,VWS V14.01,2013-04-08 03:31:00,
2013-04-07 23:36:00,57.2,-6.3,27.55,South,180,0.0,2.2,7,0.00,,---,0.00,VWS V14.01,2013-04-08 03:36:00,
2013-04-07 23:41:00,56.8,-6.6,27.55,SSE,160,0.0,0.0,7,0.00,,---,0.00,VWS V14.01,2013-04-08 03:41:00,
2013-04-07 23:46:00,56.3,-7.0,27.55,SE,145,0.0,0.0,7,0.00,,---,0.00,VWS V14.01,2013-04-08 03:46:00,
2013-04-07 23:52:00,55.9,-7.3,27.55,SE,145,0.0,0.0,7,0.00,,---,0.00,VWS V14.01,2013-04-08 03:52:00,
2013-04-07 23:57:00,55.6,-7.6,27.55,SE,145,0.0,0.0,7,0.00,,---,0.00,VWS V14.01,2013-04-08 03:57:00,